TRA2601 EHAM-LEIB
Flight info
| Callsign | TRA2601 |
|---|---|
| Flight time | N/A |
| Altitude | 37000 |
| Route | LOPIK N852 LNO DCT SUTAL DCT GTQ DCT POGOL DCT LASAT DCT MOROK DCT GILIR DCT GEVEA DCT INCUS DCT BALSI DCT RETNO DCT TUPOX DCT MTG DCT DIVKO DCT VATIR N852 PIVUS Z237 SULID DCT DIMIB DCT POS |
| Aircraft | B738/M-SDE2E3FGHIRWXY/LB1 |
Departure
| Time | 2026-04-28 12:34 |
|---|---|
| Airport | Amsterdam Airport Schiphol (EHAM) |
Arrival
| Time | N/A |
|---|---|
| Airport | Ibiza Airport (LEIB) |
| Time | Latitude | Longitude | Altitude | Speed | Heading |
|---|---|---|---|---|---|
| 2026-04-28 12:15 | 52.30467 | 4.76568 | -4 ft | 0 kts | 58° |
| 2026-04-28 12:24 | 52.30462 | 4.76555 | -4 ft | 3 kts | 59° |
| 2026-04-28 12:24 | 52.30453 | 4.76526 | -4 ft | 3 kts | 79° |
| 2026-04-28 12:24 | 52.30454 | 4.76502 | -4 ft | 2 kts | 128° |
| 2026-04-28 12:25 | 52.30457 | 4.76495 | -4 ft | 1 kts | 135° |
| 2026-04-28 12:26 | 52.30453 | 4.76499 | -4 ft | 3 kts | 144° |
| 2026-04-28 12:27 | 52.30422 | 4.76526 | -4 ft | 8 kts | 150° |
| 2026-04-28 12:27 | 52.30367 | 4.76595 | -4 ft | 12 kts | 125° |
| 2026-04-28 12:27 | 52.30328 | 4.76726 | -4 ft | 13 kts | 129° |
| 2026-04-28 12:27 | 52.30329 | 4.76862 | -4 ft | 16 kts | 59° |
| 2026-04-28 12:28 | 52.30397 | 4.77040 | -4 ft | 19 kts | 58° |
| 2026-04-28 12:28 | 52.30464 | 4.77216 | -4 ft | 18 kts | 58° |
| 2026-04-28 12:28 | 52.30538 | 4.77408 | -4 ft | 20 kts | 58° |
| 2026-04-28 12:28 | 52.30627 | 4.77573 | -4 ft | 19 kts | 22° |
| 2026-04-28 12:29 | 52.30928 | 4.77612 | -4 ft | 26 kts | 4° |
| 2026-04-28 12:29 | 52.31100 | 4.77628 | -4 ft | 24 kts | 2° |
| 2026-04-28 12:29 | 52.31261 | 4.77644 | -4 ft | 23 kts | 4° |
| 2026-04-28 12:30 | 52.31444 | 4.77638 | -4 ft | 27 kts | 340° |
| 2026-04-28 12:30 | 52.31571 | 4.77429 | -4 ft | 26 kts | 289° |
| 2026-04-28 12:30 | 52.31570 | 4.77102 | -4 ft | 36 kts | 266° |
| 2026-04-28 12:30 | 52.31557 | 4.76695 | -4 ft | 35 kts | 267° |
| 2026-04-28 12:31 | 52.31544 | 4.76308 | -4 ft | 33 kts | 266° |
| 2026-04-28 12:31 | 52.31529 | 4.75945 | -4 ft | 31 kts | 265° |
| 2026-04-28 12:31 | 52.31519 | 4.75604 | -4 ft | 29 kts | 266° |
| 2026-04-28 12:31 | 52.31507 | 4.75283 | -4 ft | 27 kts | 267° |
| 2026-04-28 12:32 | 52.31498 | 4.74981 | -4 ft | 26 kts | 266° |
| 2026-04-28 12:32 | 52.31497 | 4.74711 | -4 ft | 18 kts | 292° |
| 2026-04-28 12:32 | 52.31575 | 4.74660 | -3 ft | 15 kts | 358° |
| 2026-04-28 12:32 | 52.31653 | 4.74668 | -3 ft | 5 kts | 18° |
| 2026-04-28 12:33 | 52.31668 | 4.74709 | -2 ft | 6 kts | 75° |
| 2026-04-28 12:33 | 52.31680 | 4.75018 | -5 ft | 62 kts | 86° |
| 2026-04-28 12:33 | 52.31719 | 4.76124 | -2 ft | 129 kts | 87° |
| 2026-04-28 12:33 | 52.31740 | 4.77764 | 458 ft | 145 kts | 84° |
| 2026-04-28 12:34 | 52.31773 | 4.79337 | 1396 ft | 143 kts | 83° |
| 2026-04-28 12:34 | 52.31668 | 4.81002 | 2062 ft | 164 kts | 107° |
| 2026-04-28 12:34 | 52.30750 | 4.82480 | 2383 ft | 211 kts | 149° |
| 2026-04-28 12:34 | 52.29269 | 4.83207 | 2793 ft | 229 kts | 159° |
| 2026-04-28 12:35 | 52.27730 | 4.83897 | 3605 ft | 229 kts | 158° |
| 2026-04-28 12:35 | 52.26205 | 4.84608 | 4493 ft | 228 kts | 159° |
| 2026-04-28 12:35 | 52.24798 | 4.85763 | 5124 ft | 233 kts | 137° |
| 2026-04-28 12:35 | 52.23482 | 4.87528 | 5547 ft | 252 kts | 136° |
| 2026-04-28 12:36 | 52.22122 | 4.89350 | 6130 ft | 256 kts | 137° |
| 2026-04-28 12:36 | 52.20733 | 4.91197 | 6402 ft | 261 kts | 137° |
| 2026-04-28 12:36 | 52.19323 | 4.93050 | 7342 ft | 258 kts | 137° |
| 2026-04-28 12:36 | 52.17907 | 4.94904 | 8078 ft | 264 kts | 138° |
| 2026-04-28 12:37 | 52.16463 | 4.96780 | 8866 ft | 267 kts | 138° |
| 2026-04-28 12:37 | 52.14997 | 4.98681 | 9636 ft | 271 kts | 138° |
| 2026-04-28 12:37 | 52.13511 | 5.00602 | 10399 ft | 275 kts | 138° |
| 2026-04-28 12:37 | 52.11980 | 5.02585 | 10835 ft | 292 kts | 139° |
| 2026-04-28 12:38 | 52.10314 | 5.04711 | 10994 ft | 317 kts | 142° |
| 2026-04-28 12:38 | 52.08241 | 5.06309 | 11154 ft | 344 kts | 160° |
| 2026-04-28 12:38 | 52.05862 | 5.07353 | 11374 ft | 362 kts | 162° |
| 2026-04-28 12:38 | 52.03393 | 5.08389 | 11883 ft | 371 kts | 163° |
| 2026-04-28 12:39 | 52.00893 | 5.09450 | 12636 ft | 371 kts | 162° |
| 2026-04-28 12:39 | 51.98384 | 5.10547 | 13287 ft | 377 kts | 162° |
| 2026-04-28 12:39 | 51.95843 | 5.11681 | 13988 ft | 381 kts | 163° |
| 2026-04-28 12:39 | 51.93274 | 5.12824 | 14608 ft | 385 kts | 163° |
| 2026-04-28 12:40 | 51.90678 | 5.13976 | 15268 ft | 388 kts | 163° |
| 2026-04-28 12:40 | 51.88063 | 5.15138 | 15930 ft | 392 kts | 163° |
| 2026-04-28 12:40 | 51.85417 | 5.16313 | 16566 ft | 396 kts | 163° |
| 2026-04-28 12:40 | 51.82740 | 5.17501 | 17183 ft | 401 kts | 163° |
| 2026-04-28 12:41 | 51.80044 | 5.18694 | 17865 ft | 403 kts | 163° |
| 2026-04-28 12:41 | 51.77357 | 5.19886 | 18443 ft | 408 kts | 163° |
| 2026-04-28 12:41 | 51.74667 | 5.21075 | 18994 ft | 411 kts | 163° |
| 2026-04-28 12:41 | 51.71907 | 5.22292 | 19587 ft | 413 kts | 163° |
| 2026-04-28 12:42 | 51.69124 | 5.23516 | 20097 ft | 416 kts | 163° |
| 2026-04-28 12:42 | 51.66321 | 5.24750 | 20673 ft | 418 kts | 163° |
| 2026-04-28 12:42 | 51.63504 | 5.25989 | 21183 ft | 422 kts | 163° |
| 2026-04-28 12:42 | 51.60663 | 5.27237 | 21709 ft | 424 kts | 164° |
| 2026-04-28 12:43 | 51.57811 | 5.28485 | 22219 ft | 427 kts | 164° |
| 2026-04-28 12:43 | 51.54937 | 5.29745 | 22704 ft | 430 kts | 164° |
| 2026-04-28 12:43 | 51.52046 | 5.31012 | 23240 ft | 431 kts | 164° |
| 2026-04-28 12:43 | 51.49141 | 5.32284 | 23693 ft | 435 kts | 164° |
| 2026-04-28 12:44 | 51.46213 | 5.33562 | 24110 ft | 436 kts | 165° |
| 2026-04-28 12:44 | 51.43276 | 5.34840 | 24456 ft | 440 kts | 165° |
| 2026-04-28 12:44 | 51.40306 | 5.36131 | 24778 ft | 443 kts | 165° |
| 2026-04-28 12:44 | 51.37321 | 5.37428 | 25173 ft | 445 kts | 165° |
| 2026-04-28 12:45 | 51.34321 | 5.38737 | 25479 ft | 449 kts | 165° |
| 2026-04-28 12:45 | 51.31296 | 5.40057 | 25831 ft | 451 kts | 165° |
| 2026-04-28 12:45 | 51.28259 | 5.41378 | 26173 ft | 454 kts | 165° |
| 2026-04-28 12:45 | 51.25192 | 5.42650 | 26467 ft | 457 kts | 167° |
| 2026-04-28 12:46 | 51.22076 | 5.43718 | 26791 ft | 459 kts | 168° |
| 2026-04-28 12:46 | 51.18935 | 5.44726 | 27095 ft | 461 kts | 168° |
| 2026-04-28 12:46 | 51.15791 | 5.45853 | 27365 ft | 465 kts | 166° |
| 2026-04-28 12:46 | 51.12666 | 5.47176 | 27725 ft | 465 kts | 165° |
| 2026-04-28 12:47 | 51.09600 | 5.48560 | 28216 ft | 463 kts | 164° |
| 2026-04-28 12:47 | 51.06504 | 5.49973 | 28676 ft | 462 kts | 164° |
| 2026-04-28 12:47 | 51.03413 | 5.51370 | 29075 ft | 463 kts | 165° |
| 2026-04-28 12:47 | 51.00309 | 5.52752 | 29469 ft | 463 kts | 165° |
| 2026-04-28 12:48 | 50.97206 | 5.54115 | 29915 ft | 462 kts | 165° |
| 2026-04-28 12:48 | 50.94112 | 5.55461 | 30368 ft | 461 kts | 165° |
| 2026-04-28 12:48 | 50.91019 | 5.56801 | 30764 ft | 459 kts | 165° |
| 2026-04-28 12:48 | 50.87942 | 5.58133 | 31136 ft | 458 kts | 166° |
| 2026-04-28 12:49 | 50.84874 | 5.59458 | 31524 ft | 457 kts | 166° |
| 2026-04-28 12:49 | 50.81814 | 5.60780 | 31921 ft | 455 kts | 166° |
| 2026-04-28 12:49 | 50.78765 | 5.62095 | 32333 ft | 453 kts | 166° |
| 2026-04-28 12:49 | 50.75730 | 5.63403 | 32712 ft | 451 kts | 166° |
| 2026-04-28 12:50 | 50.72710 | 5.64705 | 33096 ft | 450 kts | 167° |
| 2026-04-28 12:50 | 50.69699 | 5.66000 | 33476 ft | 448 kts | 167° |
| 2026-04-28 12:50 | 50.66696 | 5.67303 | 33843 ft | 447 kts | 166° |
| 2026-04-28 12:50 | 50.63707 | 5.68660 | 34177 ft | 447 kts | 166° |
| 2026-04-28 12:51 | 50.60722 | 5.70027 | 34418 ft | 447 kts | 166° |
| 2026-04-28 12:51 | 50.57737 | 5.71444 | 34623 ft | 449 kts | 163° |
| 2026-04-28 12:51 | 50.54802 | 5.73154 | 34854 ft | 450 kts | 161° |
| 2026-04-28 12:51 | 50.51890 | 5.74981 | 35072 ft | 451 kts | 160° |
| 2026-04-28 12:52 | 50.48981 | 5.76849 | 35293 ft | 452 kts | 160° |
| 2026-04-28 12:52 | 50.46069 | 5.78719 | 35511 ft | 452 kts | 160° |
| 2026-04-28 12:52 | 50.43150 | 5.80575 | 35714 ft | 453 kts | 160° |
| 2026-04-28 12:52 | 50.40224 | 5.82417 | 35917 ft | 454 kts | 161° |
| 2026-04-28 12:53 | 50.37288 | 5.84249 | 36132 ft | 454 kts | 160° |
| 2026-04-28 12:53 | 50.34353 | 5.86069 | 36342 ft | 454 kts | 161° |
| 2026-04-28 12:53 | 50.31407 | 5.87889 | 36534 ft | 455 kts | 161° |
| 2026-04-28 12:53 | 50.29453 | 5.89093 | 36644 ft | 456 kts | 161° |
| 2026-04-28 12:54 | 50.25500 | 5.91528 | 36898 ft | 457 kts | 161° |
| 2026-04-28 12:54 | 50.22543 | 5.93346 | 37101 ft | 457 kts | 161° |
| 2026-04-28 12:54 | 50.19567 | 5.95172 | 37108 ft | 461 kts | 161° |
| 2026-04-28 12:55 | 50.13587 | 5.98838 | 37108 ft | 461 kts | 161° |
| 2026-04-28 12:55 | 50.07671 | 6.02458 | 37109 ft | 459 kts | 161° |
| 2026-04-28 12:56 | 50.01740 | 6.06077 | 37106 ft | 457 kts | 161° |
| 2026-04-28 12:56 | 49.95829 | 6.09673 | 37108 ft | 456 kts | 161° |
| 2026-04-28 12:57 | 49.89926 | 6.13254 | 37103 ft | 455 kts | 161° |
| 2026-04-28 12:57 | 49.84022 | 6.16826 | 37100 ft | 456 kts | 161° |
| 2026-04-28 12:58 | 49.78102 | 6.20398 | 37100 ft | 457 kts | 161° |
| 2026-04-28 12:58 | 49.72158 | 6.23976 | 37104 ft | 459 kts | 162° |
| 2026-04-28 12:59 | 49.66189 | 6.27560 | 37113 ft | 461 kts | 162° |
| 2026-04-28 12:59 | 49.63189 | 6.29357 | 37262 ft | 462 kts | 162° |
| 2026-04-28 12:59 | 49.60195 | 6.31149 | 37510 ft | 462 kts | 162° |
| 2026-04-28 12:59 | 49.57203 | 6.32939 | 37744 ft | 461 kts | 162° |
| 2026-04-28 13:00 | 49.54209 | 6.34726 | 37919 ft | 462 kts | 162° |
| 2026-04-28 13:00 | 49.51207 | 6.36516 | 38057 ft | 463 kts | 162° |
| 2026-04-28 13:00 | 49.48202 | 6.38305 | 38231 ft | 464 kts | 162° |
| 2026-04-28 13:00 | 49.45194 | 6.40119 | 38433 ft | 464 kts | 161° |
| 2026-04-28 13:01 | 49.42222 | 6.42072 | 38606 ft | 465 kts | 159° |
| 2026-04-28 13:01 | 49.39263 | 6.44110 | 38752 ft | 466 kts | 159° |
| 2026-04-28 13:01 | 49.36305 | 6.46169 | 38882 ft | 467 kts | 159° |
| 2026-04-28 13:01 | 49.33351 | 6.48217 | 39014 ft | 466 kts | 159° |
| 2026-04-28 13:02 | 49.30398 | 6.50244 | 39054 ft | 465 kts | 159° |
| 2026-04-28 13:02 | 49.24477 | 6.54257 | 39068 ft | 466 kts | 159° |
| 2026-04-28 13:03 | 49.18536 | 6.58252 | 39075 ft | 468 kts | 160° |
| 2026-04-28 13:03 | 49.12566 | 6.62259 | 39065 ft | 469 kts | 160° |
| 2026-04-28 13:04 | 49.06576 | 6.66273 | 39063 ft | 470 kts | 160° |
| 2026-04-28 13:04 | 49.00545 | 6.70095 | 39055 ft | 467 kts | 167° |
| 2026-04-28 13:05 | 48.94226 | 6.71600 | 39053 ft | 456 kts | 185° |
| 2026-04-28 13:05 | 48.87910 | 6.71290 | 39061 ft | 454 kts | 186° |
| 2026-04-28 13:06 | 48.81613 | 6.70951 | 39054 ft | 453 kts | 186° |
| 2026-04-28 13:06 | 48.75322 | 6.70675 | 39053 ft | 451 kts | 186° |
| 2026-04-28 13:07 | 48.69049 | 6.70430 | 39047 ft | 450 kts | 186° |
| 2026-04-28 13:07 | 48.62799 | 6.70190 | 39046 ft | 448 kts | 186° |
| 2026-04-28 13:08 | 48.56574 | 6.69948 | 39037 ft | 447 kts | 186° |
| 2026-04-28 13:08 | 48.51419 | 6.69748 | 39036 ft | 445 kts | 186° |
| 2026-04-28 13:09 | 48.45241 | 6.69508 | 39038 ft | 444 kts | 186° |
| 2026-04-28 13:09 | 48.38082 | 6.69231 | 39036 ft | 442 kts | 186° |
| 2026-04-28 13:10 | 48.31940 | 6.69001 | 39033 ft | 441 kts | 186° |
| 2026-04-28 13:10 | 48.26803 | 6.68809 | 39029 ft | 440 kts | 186° |
| 2026-04-28 13:11 | 48.20680 | 6.68579 | 39032 ft | 440 kts | 186° |
| 2026-04-28 13:11 | 48.14554 | 6.68349 | 39036 ft | 440 kts | 186° |
| 2026-04-28 13:12 | 48.08426 | 6.68121 | 39038 ft | 441 kts | 186° |
| 2026-04-28 13:12 | 48.02288 | 6.67894 | 39038 ft | 441 kts | 186° |
| 2026-04-28 13:13 | 47.96186 | 6.67668 | 39046 ft | 442 kts | 186° |
| 2026-04-28 13:13 | 47.90021 | 6.67440 | 39041 ft | 444 kts | 186° |
| 2026-04-28 13:14 | 47.83841 | 6.67211 | 39043 ft | 445 kts | 186° |
| 2026-04-28 13:14 | 47.77651 | 6.66984 | 39045 ft | 445 kts | 186° |
| 2026-04-28 13:15 | 47.71443 | 6.66756 | 39046 ft | 446 kts | 186° |
| 2026-04-28 13:15 | 47.65237 | 6.66529 | 39047 ft | 447 kts | 186° |
| 2026-04-28 13:16 | 47.59004 | 6.66302 | 39044 ft | 447 kts | 186° |
| 2026-04-28 13:16 | 47.52781 | 6.66076 | 39048 ft | 447 kts | 186° |
| 2026-04-28 13:17 | 47.46563 | 6.65850 | 39045 ft | 447 kts | 186° |
| 2026-04-28 13:17 | 47.40493 | 6.64664 | 39062 ft | 434 kts | 204° |
| 2026-04-28 13:18 | 47.35341 | 6.60351 | 39049 ft | 423 kts | 223° |
| 2026-04-28 13:18 | 47.30876 | 6.54710 | 39044 ft | 424 kts | 219° |
| 2026-04-28 13:19 | 47.25615 | 6.50681 | 39068 ft | 434 kts | 202° |
| 2026-04-28 13:19 | 47.19666 | 6.48586 | 39062 ft | 443 kts | 196° |
| 2026-04-28 13:20 | 47.13628 | 6.46773 | 39060 ft | 447 kts | 195° |
| 2026-04-28 13:20 | 47.07472 | 6.44897 | 39065 ft | 450 kts | 196° |
| 2026-04-28 13:21 | 47.01375 | 6.42999 | 39056 ft | 452 kts | 196° |
| 2026-04-28 13:21 | 46.95185 | 6.41059 | 39053 ft | 452 kts | 196° |
| 2026-04-28 13:22 | 46.89081 | 6.39146 | 39049 ft | 452 kts | 196° |
| 2026-04-28 13:22 | 46.82933 | 6.37226 | 39052 ft | 452 kts | 196° |
| 2026-04-28 13:23 | 46.76782 | 6.35311 | 39045 ft | 452 kts | 196° |
| 2026-04-28 13:23 | 46.70644 | 6.33403 | 39047 ft | 451 kts | 196° |
| 2026-04-28 13:24 | 46.64515 | 6.31503 | 39044 ft | 450 kts | 196° |
| 2026-04-28 13:24 | 46.58378 | 6.29605 | 39052 ft | 450 kts | 196° |
| 2026-04-28 13:25 | 46.52252 | 6.27714 | 39048 ft | 450 kts | 196° |
| 2026-04-28 13:25 | 46.46128 | 6.25828 | 39050 ft | 450 kts | 196° |
| 2026-04-28 13:26 | 46.40004 | 6.23947 | 39046 ft | 450 kts | 196° |
| 2026-04-28 13:26 | 46.33874 | 6.22068 | 39043 ft | 450 kts | 197° |
| 2026-04-28 13:27 | 46.27742 | 6.20193 | 39048 ft | 451 kts | 196° |
| 2026-04-28 13:27 | 46.21600 | 6.18319 | 39053 ft | 451 kts | 196° |
| 2026-04-28 13:28 | 46.15449 | 6.16447 | 39048 ft | 452 kts | 196° |
| 2026-04-28 13:28 | 46.09295 | 6.14578 | 39052 ft | 453 kts | 196° |
| 2026-04-28 13:29 | 46.03132 | 6.12710 | 39026 ft | 452 kts | 197° |
| 2026-04-28 13:29 | 45.96970 | 6.10848 | 39013 ft | 453 kts | 197° |
| 2026-04-28 13:30 | 45.90806 | 6.08989 | 39027 ft | 453 kts | 197° |
| 2026-04-28 13:30 | 45.84624 | 6.07127 | 39026 ft | 456 kts | 197° |
| 2026-04-28 13:31 | 45.75361 | 6.04350 | 38986 ft | 451 kts | 197° |
| 2026-04-28 13:31 | 45.70149 | 6.02792 | 38986 ft | 447 kts | 197° |
| 2026-04-28 13:32 | 45.64089 | 6.00980 | 38984 ft | 445 kts | 197° |
| 2026-04-28 13:32 | 45.57988 | 5.99157 | 39006 ft | 450 kts | 197° |
| 2026-04-28 13:33 | 45.51826 | 5.97324 | 39002 ft | 454 kts | 197° |
| 2026-04-28 13:33 | 45.45669 | 5.95488 | 38998 ft | 455 kts | 197° |
| 2026-04-28 13:34 | 45.39482 | 5.93560 | 39012 ft | 455 kts | 197° |
| 2026-04-28 13:34 | 45.33303 | 5.91617 | 39005 ft | 454 kts | 197° |
| 2026-04-28 13:35 | 45.27159 | 5.89699 | 39013 ft | 450 kts | 197° |
| 2026-04-28 13:35 | 45.21049 | 5.87798 | 39029 ft | 449 kts | 197° |
| 2026-04-28 13:36 | 45.14957 | 5.85908 | 39026 ft | 448 kts | 197° |
| 2026-04-28 13:36 | 45.08870 | 5.84025 | 39021 ft | 448 kts | 197° |
| 2026-04-28 13:37 | 45.02777 | 5.82144 | 39023 ft | 448 kts | 197° |
| 2026-04-28 13:37 | 44.96676 | 5.80261 | 39015 ft | 449 kts | 197° |
| 2026-04-28 13:38 | 44.90570 | 5.78388 | 39024 ft | 449 kts | 197° |
| 2026-04-28 13:38 | 44.84472 | 5.76515 | 38559 ft | 449 kts | 193° |
| 2026-04-28 13:39 | 44.81427 | 5.75577 | 38782 ft | 447 kts | 192° |
| 2026-04-28 13:39 | 44.78507 | 5.74686 | 38863 ft | 448 kts | 192° |
| 2026-04-28 13:39 | 44.75686 | 5.73827 | 38932 ft | 450 kts | 192° |